Time;durP1;ratioP1;P1;durP2;ratioP2;P2;SDS_P1;SDS_P2;PMS_P1;PMS_P2;Temp;Humidity;BMP_temperature;BMP_pressure;BME280_temperature;BME280_humidity;BME280_pressure;Samples;Min_cycle;Max_cycle;Signal;HPM_P1;HPM_P2
2024/03/10 04:50:21;;;;;;;;;;;;;;;-147.86;100.00;38170.49;102746;1292;600193;-44
2024/03/10 04:52:49;;;;;;;70.60;32.00;;;;;;;-147.86;100.00;24841.00;105068;1266;59267;-43
2024/03/10 04:55:17;;;;;;;68.60;32.00;;;;;;;-147.86;100.00;24715.34;104850;1267;60181;-46
2024/03/10 04:57:46;;;;;;;69.30;31.70;;;;;;;-147.86;100.00;22708.76;104825;1270;71064;-45
2024/03/10 05:00:18;;;;;;;69.60;31.40;;;;;;;-147.86;100.00;20619.11;104891;1270;64044;-45
2024/03/10 05:02:46;;;;;;;80.10;32.80;;;;;;;-147.86;100.00;18848.12;104899;1279;72648;-45
2024/03/10 05:05:16;;;;;;;75.40;32.60;;;;;;;-147.86;100.00;17365.36;104945;1269;59381;-45
2024/03/10 06:07:03;;;;;;;52.40;23.40;;;;;;;-147.86;100.00;25603.73;102590;1292;600238;-43
2024/03/10 06:09:37;;;;;;;50.10;24.00;;;;;;;-147.86;100.00;14760.16;104839;1265;59379;-44
2024/03/10 06:12:06;;;;;;;53.00;24.10;;;;;;;-147.86;100.00;15215.83;104804;1267;59975;-50
2024/03/10 06:14:34;;;;;;;47.60;21.60;;;;;;;-147.86;100.00;15892.30;104826;1270;72230;-46
2024/03/10 06:17:04;;;;;;;44.80;22.00;;;;;;;-147.86;100.00;16428.54;104879;1266;64181;-48
2024/03/10 06:25:27;;;;;;;45.50;21.50;;;;;;;-147.86;100.00;16078.96;105857;1256;59267;-46
2024/03/10 06:27:56;;;;;;;49.70;21.80;;;;;;;-147.86;100.00;17023.30;105664;1253;71081;-48
2024/03/10 06:30:24;;;;;;;41.40;21.80;;;;;;;-147.86;100.00;18265.13;105899;1257;64250;-47
2024/03/10 06:32:52;;;;;;;40.50;20.80;;;;;;;-147.86;100.00;18825.06;105824;1257;71253;-48
2024/03/10 06:35:20;;;;;;;51.60;22.50;;;;;;;-147.86;100.00;19214.21;105803;1257;59697;-48
2024/03/10 06:37:48;;;;;;;47.90;23.10;;;;;;;-147.86;100.00;19443.84;105661;1257;59745;-53
2024/03/10 06:40:16;;;;;;;42.70;20.80;;;;;;;-147.86;100.00;19655.25;105724;1253;72516;-49
2024/03/10 06:42:45;;;;;;;39.90;21.90;;;;;;;-147.86;100.00;20153.50;105660;1258;63423;-52
2024/03/10 06:45:15;;;;;;;44.90;21.70;;;;;;;-147.86;100.00;20554.17;105715;1253;71510;-51
2024/03/10 06:47:43;;;;;;;42.40;21.10;;;;;;;-147.86;100.00;20505.59;105857;1253;59633;-50
2024/03/10 06:50:11;;;;;;;46.30;20.90;;;;;;;-147.86;100.00;20664.28;105685;1259;59705;-50
2024/03/10 06:52:40;;;;;;;47.90;21.20;;;;;;;-147.86;100.00;20810.71;105842;1253;71766;-50
2024/03/10 06:55:12;;;;;;;41.70;20.60;;;;;;;-147.86;100.00;20575.13;105716;1257;63916;-55
2024/03/10 06:57:40;;;;;;;42.60;19.10;;;;;;;-147.86;100.00;19838.80;105834;1253;72622;-53
2024/03/10 07:00:08;;;;;;;47.30;18.60;;;;;;;-147.86;100.00;19223.05;105592;1257;59762;-50
2024/03/10 07:02:38;;;;;;;37.80;19.80;;;;;;;-147.86;100.00;17887.67;105539;1257;59665;-52
2024/03/10 07:05:11;;;;;;;35.70;20.30;;;;;;;-147.86;100.00;18419.80;105656;1258;75256;-48
2024/03/10 07:07:39;;;;;;;38.80;20.30;;;;;;;-147.86;100.00;21604.56;105710;1258;66277;-48
2024/03/10 07:10:09;;;;;;;39.30;18.70;;;;;;;-147.86;100.00;22481.11;105664;1255;71654;-49
2024/03/10 07:12:38;;;;;;;36.70;19.60;;;;;;;-147.86;100.00;21864.17;105676;1255;60540;-53
2024/03/10 07:15:09;;;;;;;40.70;19.70;;;;;;;-147.86;100.00;20789.38;105677;1254;60022;-49
2024/03/10 07:17:40;;;;;;;34.20;17.90;;;;;;;-147.86;100.00;18792.23;105658;1253;71794;-50
2024/03/10 07:20:10;;;;;;;33.60;18.00;;;;;;;-147.86;100.00;16285.32;105651;1258;64985;-52
2024/03/10 07:22:38;;;;;;;33.00;17.10;;;;;;;-147.86;100.00;13371.97;105658;1253;72700;-52
2024/03/10 07:25:06;;;;;;;41.70;18.90;;;;;;;-147.86;100.00;10198.36;105664;1253;59632;-52
2024/03/10 07:27:34;;;;;;;49.40;19.30;;;;;;;-147.86;100.00;6514.15;105686;1254;59558;-50
2024/03/10 07:30:04;;;;;;;39.70;17.70;;;;;;;-147.86;100.00;2884.98;105697;1253;71806;-51
2024/03/10 07:32:32;;;;;;;34.20;16.40;;;;;;;-147.86;100.00;-822.45;105689;1258;64519;-53
2024/03/10 07:35:00;;;;;;;40.60;18.20;;;;;;;-147.86;100.00;-4741.76;105732;1259;71414;-53
2024/03/10 07:37:28;;;;;;;31.40;16.70;;;;;;;-147.86;100.00;-9002.47;105680;1255;59708;-52
2024/03/10 07:39:57;;;;;;;37.10;15.00;;;;;;;-147.86;100.00;-13515.87;105752;1253;60085;-49
2024/03/10 07:42:25;;;;;;;24.90;12.90;;;;;;;-147.86;100.00;-16994.36;105627;1253;71905;-52
2024/03/10 07:44:54;;;;;;;28.50;13.00;;;;;;;-147.86;100.00;-16723.70;105700;1253;63201;-50
2024/03/10 07:47:21;;;;;;;32.40;13.50;;;;;;;-147.86;100.00;-17264.63;105638;1254;71408;-49
2024/03/10 07:49:49;;;;;;;26.30;13.10;;;;;;;-147.86;100.00;-17579.00;105720;1258;60125;-53
2024/03/10 07:52:18;;;;;;;23.90;12.80;;;;;;;-147.86;100.00;-17594.23;105670;1257;59745;-53
2024/03/10 07:54:46;;;;;;;16.30;9.10;;;;;;;-147.86;100.00;-17609.17;105627;1258;73073;-53
2024/03/10 07:57:13;;;;;;;17.80;8.50;;;;;;;-147.86;100.00;-17609.17;105645;1253;63002;-52
2024/03/10 07:59:41;;;;;;;18.90;7.10;;;;;;;-147.86;100.00;-17609.17;105654;1257;73098;-51
2024/03/10 08:02:09;;;;;;;12.10;8.20;;;;;;;-147.86;100.00;-17609.17;105635;1255;59630;-50
2024/03/10 08:04:38;;;;;;;9.50;4.90;;;;;;;-147.86;100.00;-17609.17;105706;1258;59775;-53
2024/03/10 08:07:07;;;;;;;8.60;4.40;;;;;;;-147.86;97.40;-11974.68;105678;1253;73052;-46
2024/03/10 08:09:35;;;;;;;12.80;4.80;;;;;;;-147.86;89.61;37601.34;105728;1257;63121;-49
2024/03/10 08:12:04;;;;;;;8.20;4.80;;;;;;;-147.86;84.81;54623.65;105679;1254;71503;-52
2024/03/10 08:14:31;;;;;;;10.50;5.40;;;;;;;-147.86;82.10;49359.63;105691;1254;59689;-50
2024/03/10 08:16:59;;;;;;;6.90;3.60;;;;;;;-147.86;78.63;47166.66;105682;1256;59712;-48
2024/03/10 08:19:27;;;;;;;9.00;4.40;;;;;;;-147.86;73.91;46363.19;105675;1258;74267;-51
2024/03/10 08:21:56;;;;;;;7.50;4.20;;;;;;;-147.86;70.56;46086.13;105701;1253;65535;-50
2024/03/10 08:24:25;;;;;;;11.80;3.90;;;;;;;-147.86;66.87;45963.87;105683;1253;71500;-55
2024/03/10 08:26:53;;;;;;;12.00;4.30;;;;;;;-147.86;63.16;45894.12;105673;1258;59661;-49
2024/03/10 08:29:21;;;;;;;5.50;4.30;;;;;;;-147.86;60.95;45867.48;105720;1253;60052;-52
2024/03/10 08:31:50;;;;;;;10.60;4.70;;;;;;;-147.86;60.49;45866.70;105675;1253;73054;-52
2024/03/10 08:34:18;;;;;;;5.10;3.60;;;;;;;-147.86;59.26;45896.87;105659;1258;64543;-52
2024/03/10 08:36:46;;;;;;;5.70;3.60;;;;;;;-147.86;58.00;45939.58;105675;1253;71462;-49
2024/03/10 08:39:16;;;;;;;7.00;3.50;;;;;;;-147.86;56.88;45992.48;105669;1253;60080;-48
2024/03/10 08:41:44;;;;;;;4.30;3.60;;;;;;;-147.86;56.18;46057.13;105709;1253;60157;-47
2024/03/10 08:44:11;;;;;;;8.20;3.40;;;;;;;-147.86;54.87;46138.25;105686;1253;72881;-51
2024/03/10 08:46:39;;;;;;;6.00;3.20;;;;;;;-147.86;52.37;46233.08;105700;1259;63210;-49
2024/03/10 08:49:08;;;;;;;6.00;3.20;;;;;;;-147.86;52.72;46328.31;105709;1257;70414;-53
2024/03/10 08:51:37;;;;;;;9.90;4.30;;;;;;;-147.86;50.94;46442.74;105651;1253;59751;-47
2024/03/10 08:54:07;;;;;;;6.40;3.80;;;;;;;-147.86;50.96;46536.02;105703;1258;59961;-48
2024/03/10 08:56:40;;;;;;;7.80;3.60;;;;;;;-147.86;50.43;46603.43;105691;1253;75265;-56
2024/03/10 08:59:11;;;;;;;10.00;3.70;;;;;;;-147.86;49.51;46731.98;105722;1258;64783;-53
2024/03/10 09:01:40;;;;;;;6.40;4.10;;;;;;;-147.86;47.28;46883.66;105699;1253;74614;-49
2024/03/10 09:04:08;;;;;;;8.00;4.50;;;;;;;-147.86;46.16;47076.10;105620;1253;59690;-53
2024/03/10 09:06:36;;;;;;;10.00;4.20;;;;;;;-147.86;46.37;47243.08;105657;1258;59730;-50
2024/03/10 09:09:04;;;;;;;8.90;4.30;;;;;;;-147.86;47.33;47379.10;105686;1253;73070;-50
2024/03/10 09:11:32;;;;;;;9.10;4.10;;;;;;;-147.86;46.41;47477.49;105702;1253;63989;-53
2024/03/10 09:14:00;;;;;;;8.50;4.20;;;;;;;-147.86;45.16;47606.85;105639;1253;74738;-48
2024/03/10 09:16:28;;;;;;;10.80;4.70;;;;;;;-147.86;43.72;47750.73;105696;1253;59712;-50
2024/03/10 09:18:55;;;;;;;15.60;4.60;;;;;;;-147.86;42.48;47895.78;105659;1258;59741;-51
2024/03/10 09:21:24;;;;;;;10.70;4.20;;;;;;;-147.86;42.25;48083.18;105645;1259;72081;-49
2024/03/10 09:23:52;;;;;;;12.50;4.90;;;;;;;-147.86;42.44;48231.38;105744;1253;66139;-52
2024/03/10 09:26:20;;;;;;;14.60;4.80;;;;;;;-147.86;42.38;48333.71;105660;1258;73604;-52
2024/03/10 09:28:50;;;;;;;11.50;4.30;;;;;;;-147.86;42.53;48445.85;105681;1257;60787;-51
2024/03/10 09:31:18;;;;;;;8.30;3.90;;;;;;;-147.86;42.35;48542.70;105669;1259;60305;-50
2024/03/10 09:33:46;;;;;;;13.50;4.90;;;;;;;-147.86;41.94;48649.35;105670;1253;73271;-53
2024/03/10 09:36:17;;;;;;;17.60;5.20;;;;;;;-147.86;41.03;48752.48;105646;1258;64711;-54
2024/03/10 09:38:45;;;;;;;12.30;5.20;;;;;;;-147.86;41.11;48810.91;105652;1254;71445;-49
2024/03/10 09:41:13;;;;;;;11.00;4.70;;;;;;;-147.86;42.12;48872.48;105637;1256;59704;-53
2024/03/10 09:43:41;;;;;;;14.00;4.80;;;;;;;-147.86;42.22;48910.91;105709;1253;60463;-51
2024/03/10 09:46:13;;;;;;;8.70;4.40;;;;;;;-147.86;42.37;48953.65;105671;1259;72737;-51
2024/03/10 09:48:43;;;;;;;8.40;4.50;;;;;;;-147.86;41.83;48988.55;105671;1258;64287;-51
2024/03/10 09:51:15;;;;;;;12.10;4.80;;;;;;;-147.86;41.94;49010.51;105628;1260;74799;-49
2024/03/10 09:53:44;;;;;;;11.10;6.10;;;;;;;-147.86;41.97;49043.45;105694;1253;60135;-50
2024/03/10 09:56:12;;;;;;;10.00;4.40;;;;;;;-147.86;42.32;49081.49;105692;1258;59589;-48
2024/03/10 09:58:50;;;;;;;12.20;5.10;;;;;;;-147.86;41.73;49086.98;105651;1253;71783;-50
2024/03/10 10:01:21;;;;;;;10.00;4.60;;;;;;;-147.86;41.99;49106.20;105689;1253;64081;-52
2024/03/10 10:03:52;;;;;;;8.90;4.40;;;;;;;-147.86;42.31;49140.31;105636;1258;72590;-55
2024/03/10 10:06:21;;;;;;;13.40;5.10;;;;;;;-147.86;42.36;49172.08;105650;1258;61463;-55
2024/03/10 10:08:58;;;;;;;8.30;4.70;;;;;;;-147.86;41.65;49204.24;105689;1254;60418;-51
2024/03/10 10:11:27;;;;;;;8.90;4.50;;;;;;;-147.86;41.70;49196.00;105723;1254;73368;-51
2024/03/10 10:14:15;;;;;;;13.70;4.80;;;;;;;-147.86;41.36;49216.79;105754;1253;64881;-53
2024/03/10 10:16:57;;;;;;;9.00;4.60;;;;;;;-147.86;41.64;49243.46;105623;1253;74667;-47
2024/03/10 10:19:27;;;;;;;6.80;4.20;;;;;;;-147.86;41.45;49294.83;105675;1258;60505;-53
2024/03/10 10:21:55;;;;;;;8.40;4.40;;;;;;;-147.86;41.42;49304.63;105679;1253;60558;-52
2024/03/10 10:24:23;;;;;;;8.80;4.80;;;;;;;-147.86;41.53;49353.27;105673;1253;75720;-51
2024/03/10 10:26:58;;;;;;;9.70;4.40;;;;;;;-147.86;40.69;49395.23;105658;1253;64417;-51
2024/03/10 10:29:27;;;;;;;13.30;5.10;;;;;;;-147.86;40.42;49417.20;105729;1257;72661;-54
2024/03/10 10:31:59;;;;;;;9.50;4.30;;;;;;;-147.86;40.81;49461.51;105653;1258;60609;-54
2024/03/10 10:34:28;;;;;;;9.30;4.90;;;;;;;-147.86;39.88;49501.51;105662;1258;60455;-53
2024/03/10 10:36:56;;;;;;;10.00;5.00;;;;;;;-147.86;39.32;49540.73;105668;1253;74527;-54
2024/03/10 10:39:29;;;;;;;10.30;5.00;;;;;;;-147.86;39.17;49585.84;105714;1257;66497;-50
2024/03/10 10:41:57;;;;;;;10.80;5.70;;;;;;;-147.86;37.85;49627.80;105647;1257;71437;-51
2024/03/10 10:44:29;;;;;;;17.50;5.40;;;;;;;-147.86;38.54;49625.06;105595;1258;61902;-52
2024/03/10 10:46:59;;;;;;;13.30;5.80;;;;;;;-147.86;38.54;49645.85;105643;1253;60673;-47
2024/03/10 10:49:29;;;;;;;23.10;5.70;;;;;;;-147.86;38.60;49663.11;105618;1258;73874;-52
2024/03/10 10:51:57;;;;;;;12.90;5.20;;;;;;;-147.86;38.63;49681.15;105653;1253;66800;-48
2024/03/10 10:54:25;;;;;;;15.00;5.10;;;;;;;-147.86;39.45;49633.30;105673;1253;70404;-53
2024/03/10 10:56:56;;;;;;;16.20;5.30;;;;;;;-147.86;39.63;49667.42;105619;1254;60694;-49
2024/03/10 10:59:24;;;;;;;15.40;5.50;;;;;;;-147.86;38.83;49645.85;105741;1253;62359;-49
2024/03/10 11:02:05;;;;;;;11.70;5.40;;;;;;;-147.86;38.81;49654.48;105690;1253;74950;-48
2024/03/10 11:04:36;;;;;;;10.50;5.20;;;;;;;-147.86;38.89;49688.21;105700;1258;64347;-53
2024/03/10 11:07:05;;;;;;;10.60;4.90;;;;;;;-147.86;38.96;49741.16;105668;1258;72857;-48
2024/03/10 11:09:33;;;;;;;11.50;4.30;;;;;;;-147.86;38.60;49749.79;105701;1258;60599;-53
2024/03/10 11:12:21;;;;;;;11.60;4.90;;;;;;;-147.86;39.08;49741.55;105635;1253;60457;-57
2024/03/10 11:14:51;;;;;;;12.50;5.80;;;;;;;-147.86;38.88;49737.23;105647;1258;74301;-50
2024/03/10 11:17:21;;;;;;;13.50;5.40;;;;;;;-147.86;38.82;49776.07;105701;1258;63862;-52
2024/03/10 11:19:51;;;;;;;7.80;5.10;;;;;;;-147.86;38.72;49784.30;105745;1253;72674;-50
2024/03/10 11:22:24;;;;;;;10.90;5.00;;;;;;;-147.86;39.06;49839.21;105657;1258;60926;-52
2024/03/10 11:25:08;;;;;;;10.60;4.80;;;;;;;-147.86;38.85;49905.11;105669;1258;61266;-51
2024/03/10 11:27:42;;;;;;;17.80;5.30;;;;;;;-147.86;38.08;49881.57;105705;1258;73890;-55
2024/03/10 11:30:40;;;;;;;15.30;5.40;;;;;;;-147.86;37.54;49877.65;105675;1256;65375;-51
2024/03/10 11:33:11;;;;;;;15.80;5.10;;;;;;;-147.86;37.28;49894.13;105569;1253;72360;-50
2024/03/10 11:35:39;;;;;;;16.80;5.40;;;;;;;-147.86;37.67;49911.39;105733;1258;60475;-48
2024/03/10 11:38:11;;;;;;;12.30;6.10;;;;;;;-147.86;37.52;49967.09;105774;1259;60451;-55
2024/03/10 11:40:40;;;;;;;11.50;5.00;;;;;;;-147.86;37.19;49982.38;105766;1253;74111;-50
2024/03/10 11:43:10;;;;;;;10.40;5.10;;;;;;;-147.86;36.84;49971.40;105688;1258;63222;-52
2024/03/10 11:45:41;;;;;;;14.30;5.40;;;;;;;-147.86;36.73;49963.95;105597;1258;72496;-53
2024/03/10 11:48:09;;;;;;;12.10;5.10;;;;;;;-147.86;36.15;49989.84;105609;1258;61962;-48
2024/03/10 11:50:37;;;;;;;13.00;4.60;;;;;;;-147.86;36.37;49976.50;105682;1258;60455;-49
2024/03/10 11:53:05;;;;;;;10.90;5.10;;;;;;;-147.86;36.63;49939.24;105637;1253;73647;-57
2024/03/10 11:55:33;;;;;;;11.00;5.50;;;;;;;-147.86;37.20;49979.24;105651;1254;64792;-52
2024/03/10 11:58:01;;;;;;;14.00;6.00;;;;;;;-147.86;36.95;50007.09;105808;1253;74963;-56
2024/03/10 12:00:29;;;;;;;14.00;5.70;;;;;;;-147.86;36.22;49998.46;105627;1256;60503;-53
2024/03/10 12:02:57;;;;;;;12.70;5.60;;;;;;;-147.86;36.49;49978.07;105652;1258;60368;-52
2024/03/10 12:05:25;;;;;;;15.40;6.40;;;;;;;-147.86;36.47;49965.91;105730;1253;72586;-53
2024/03/10 12:07:57;;;;;;;15.80;6.00;;;;;;;-147.86;36.42;49936.10;105656;1258;66728;-50
2024/03/10 12:10:28;;;;;;;15.40;6.30;;;;;;;-147.86;36.67;49906.68;105647;1258;73968;-57
2024/03/10 12:12:57;;;;;;;13.00;5.90;;;;;;;-147.86;36.76;49879.22;105665;1255;60565;-50
2024/03/10 12:15:26;;;;;;;14.40;5.20;;;;;;;-147.86;37.18;49872.16;105691;1253;60556;-47
2024/03/10 12:17:53;;;;;;;12.50;6.20;;;;;;;-147.86;37.32;49861.96;105633;1258;75107;-51
2024/03/10 12:20:22;;;;;;;11.40;5.50;;;;;;;-147.86;37.25;49855.29;105800;1258;63331;-51
2024/03/10 12:22:51;;;;;;;11.40;5.80;;;;;;;-147.86;37.28;49849.80;105815;1253;74908;-50
2024/03/10 12:25:19;;;;;;;9.00;4.80;;;;;;;-147.86;37.52;49861.57;105755;1253;60688;-53
2024/03/10 12:27:48;;;;;;;11.60;6.60;;;;;;;-147.86;37.72;49870.59;105824;1253;61058;-57
2024/03/10 12:30:17;;;;;;;11.10;5.70;;;;;;;-147.86;37.11;49847.45;105653;1258;75944;-52
2024/03/10 12:32:52;;;;;;;19.90;5.90;;;;;;;-147.86;37.85;49841.57;105641;1258;66418;-50
2024/03/10 12:35:21;;;;;;;10.30;5.40;;;;;;;-147.86;37.58;49865.89;105787;1254;72577;-48
2024/03/10 12:37:50;;;;;;;14.10;6.60;;;;;;;-147.86;37.66;49867.85;105740;1259;60484;-49
2024/03/10 12:40:19;;;;;;;15.80;6.80;;;;;;;-147.86;37.70;49887.46;105458;1253;60463;-56
2024/03/10 12:42:47;;;;;;;13.20;6.80;;;;;;;-147.86;36.83;49903.93;105746;1253;73283;-51
2024/03/10 12:45:15;;;;;;;9.80;6.40;;;;;;;-147.86;36.81;49901.19;105636;1258;64884;-53
2024/03/10 12:47:48;;;;;;;17.20;6.70;;;;;;;-147.86;36.82;49892.16;105697;1253;72962;-50
2024/03/10 12:50:16;;;;;;;11.20;6.90;;;;;;;-147.86;37.33;49877.26;105785;1257;61117;-51
2024/03/10 12:52:44;;;;;;;17.80;7.40;;;;;;;-147.86;37.11;49892.56;105636;1253;60476;-52
2024/03/10 12:55:12;;;;;;;18.60;7.40;;;;;;;-147.86;36.96;49865.49;105637;1258;72627;-55
2024/03/10 12:57:40;;;;;;;17.00;7.60;;;;;;;-147.86;37.52;49882.36;105690;1253;64644;-50
2024/03/10 13:00:22;;;;;;;14.30;7.10;;;;;;;-147.86;37.33;49898.45;105649;1253;72645;-53
2024/03/10 13:02:57;;;;;;;18.80;7.30;;;;;;;-147.86;36.88;49899.23;105637;1253;62351;-48
2024/03/10 13:05:27;;;;;;;13.10;7.60;;;;;;;-147.86;37.41;49899.23;105682;1254;60493;-52
2024/03/10 13:07:58;;;;;;;14.30;7.00;;;;;;;-147.86;37.17;49910.21;105747;1253;74706;-55
2024/03/10 13:10:28;;;;;;;18.00;6.70;;;;;;;-147.86;36.56;49909.42;105695;1253;65026;-53
2024/03/10 13:12:56;;;;;;;11.60;7.20;;;;;;;-147.86;36.82;49892.95;105771;1253;73889;-55
2024/03/10 13:15:25;;;;;;;22.10;7.10;;;;;;;-147.86;36.63;49898.84;105673;1253;60525;-55
2024/03/10 13:17:53;;;;;;;23.30;8.60;;;;;;;-147.86;36.25;49873.34;105760;1254;61858;-53
2024/03/10 13:20:22;;;;;;;12.70;6.70;;;;;;;-147.86;36.04;49871.38;105647;1253;74282;-50
2024/03/10 13:22:50;;;;;;;14.70;8.70;;;;;;;-147.86;35.96;49849.80;105772;1254;63166;-54
2024/03/10 13:25:19;;;;;;;17.40;7.10;;;;;;;-147.86;35.80;49851.77;105698;1253;73297;-52
2024/03/10 13:27:47;;;;;;;13.50;7.60;;;;;;;-147.86;36.06;49813.72;105635;1254;60483;-53
2024/03/10 13:30:15;;;;;;;13.90;7.70;;;;;;;-147.86;36.33;49797.64;105630;1253;61919;-53
2024/03/10 13:32:43;;;;;;;12.50;6.70;;;;;;;-147.86;36.15;49781.55;105705;1259;73423;-52
2024/03/10 13:35:13;;;;;;;15.00;7.10;;;;;;;-147.86;36.39;49769.79;105728;1259;64396;-54
2024/03/10 13:37:42;;;;;;;19.20;8.10;;;;;;;-147.86;36.76;49767.44;105805;1253;75216;-53
2024/03/10 13:40:12;;;;;;;14.00;6.80;;;;;;;-147.86;36.56;49782.74;105818;1258;60470;-51
2024/03/10 13:42:46;;;;;;;25.70;8.10;;;;;;;-147.86;36.08;49775.68;105647;1253;60540;-52
2024/03/10 13:45:14;;;;;;;18.60;7.80;;;;;;;-147.86;36.45;49798.43;105675;1254;73710;-50
2024/03/10 13:47:58;;;;;;;17.70;8.60;;;;;;;-147.86;36.69;49742.34;105657;1258;66567;-54
2024/03/10 13:50:26;;;;;;;15.60;7.70;;;;;;;-147.86;36.58;49745.48;105632;1253;72929;-54
2024/03/10 13:52:54;;;;;;;20.30;8.50;;;;;;;-147.86;36.73;49745.47;105667;1258;60397;-53
2024/03/10 13:55:22;;;;;;;21.30;8.40;;;;;;;-147.86;36.56;49746.65;105748;1259;60427;-50
2024/03/10 13:57:53;;;;;;;20.40;8.40;;;;;;;-147.86;36.25;49759.98;105749;1259;74344;-49
2024/03/10 14:00:24;;;;;;;14.70;8.10;;;;;;;-147.86;36.24;49721.94;105725;1253;66592;-54
2024/03/10 14:02:53;;;;;;;22.20;8.60;;;;;;;-147.86;36.44;49716.45;105643;1253;72266;-47
2024/03/10 14:05:24;;;;;;;16.70;8.70;;;;;;;-147.86;36.40;49765.08;105687;1253;60452;-53
2024/03/10 14:07:52;;;;;;;20.10;9.10;;;;;;;-147.86;36.00;49771.75;105762;1253;61945;-52
2024/03/10 14:10:20;;;;;;;17.50;7.60;;;;;;;-147.86;35.67;49786.66;105659;1254;76854;-52
2024/03/10 14:12:48;;;;;;;17.20;8.20;;;;;;;-147.86;34.75;49792.15;105743;1258;65734;-51
2024/03/10 14:15:16;;;;;;;17.10;7.50;;;;;;;-147.86;34.94;49790.18;105624;1256;71445;-48
2024/03/10 14:17:44;;;;;;;16.80;9.20;;;;;;;-147.86;34.36;49811.37;105627;1258;61102;-53
2024/03/10 14:20:14;;;;;;;21.40;9.70;;;;;;;-147.86;34.58;49776.46;105751;1258;60499;-52
2024/03/10 14:22:48;;;;;;;21.40;9.30;;;;;;;-147.86;34.67;49806.27;105674;1258;76183;-52
2024/03/10 14:25:19;;;;;;;17.80;8.80;;;;;;;-147.86;34.88;49782.34;105663;1254;64331;-50
2024/03/10 14:27:52;;;;;;;17.00;8.60;;;;;;;-147.86;35.28;49783.52;105632;1254;72638;-52
2024/03/10 14:30:26;;;;;;;19.00;8.40;;;;;;;-147.86;35.34;49815.68;105768;1253;60448;-49
2024/03/10 14:32:55;;;;;;;15.70;8.40;;;;;;;-147.86;34.78;49835.69;105667;1259;60364;-53
2024/03/10 14:35:25;;;;;;;16.80;7.20;;;;;;;-147.86;34.40;49813.72;105705;1259;74432;-54
2024/03/10 14:37:55;;;;;;;12.40;8.50;;;;;;;-147.86;34.52;49789.40;105679;1259;64358;-53
2024/03/10 14:40:23;;;;;;;15.60;8.00;;;;;;;-147.86;34.89;49787.05;105652;1258;71913;-56
2024/03/10 14:42:53;;;;;;;14.70;7.60;;;;;;;-147.86;34.94;49777.64;105700;1259;60448;-54
2024/03/10 14:45:22;;;;;;;19.90;8.10;;;;;;;-147.86;35.20;49754.88;105681;1258;60461;-50
2024/03/10 14:47:51;;;;;;;18.80;8.40;;;;;;;-147.86;35.48;49737.63;105665;1253;72935;-51
2024/03/10 14:50:24;;;;;;;20.70;9.40;;;;;;;-147.86;35.92;49759.98;105807;1259;64927;-53
2024/03/10 14:52:54;;;;;;;24.80;8.70;;;;;;;-147.86;36.24;49749.39;105623;1254;71329;-50
2024/03/10 14:55:24;;;;;;;20.40;9.20;;;;;;;-147.86;36.60;49738.02;105630;1256;60476;-55
2024/03/10 14:57:52;;;;;;;17.10;8.90;;;;;;;-147.86;37.71;49730.57;105603;1259;61835;-51
2024/03/10 15:00:33;;;;;;;18.00;9.90;;;;;;;-147.86;38.69;49701.15;105801;1254;73789;-51
2024/03/10 15:03:06;;;;;;;24.50;10.90;;;;;;;-147.86;39.65;49668.59;105612;1258;65043;-55
2024/03/10 15:05:36;;;;;;;18.50;10.60;;;;;;;-147.86;40.51;49650.95;105632;1258;73474;-52
2024/03/10 15:08:05;;;;;;;19.50;11.30;;;;;;;-147.86;41.26;49624.67;105677;1255;60450;-53
2024/03/10 15:10:35;;;;;;;21.70;11.40;;;;;;;-147.86;41.92;49582.70;105697;1258;61065;-53
2024/03/10 15:13:08;;;;;;;19.80;10.90;;;;;;;-147.86;42.44;49571.72;105672;1253;75154;-50
2024/03/10 15:15:36;;;;;;;25.60;12.90;;;;;;;-147.86;42.86;49530.93;105796;1258;65148;-50
2024/03/10 15:18:05;;;;;;;23.80;11.50;;;;;;;-147.86;43.56;49515.63;105702;1253;74950;-51
2024/03/10 15:20:39;;;;;;;26.80;11.40;;;;;;;-147.86;44.17;49496.02;105668;1259;60553;-50
2024/03/10 15:23:11;;;;;;;33.50;15.30;;;;;;;-147.86;44.96;49463.47;105645;1253;61475;-51
2024/03/10 15:25:40;;;;;;;35.50;15.90;;;;;;;-147.86;46.96;49445.82;105670;1254;74964;-54
2024/03/10 15:28:09;;;;;;;41.60;20.50;;;;;;;-147.86;49.35;49427.78;105671;1253;65351;-52
2024/03/10 15:30:39;;;;;;;35.20;13.20;;;;;;;-147.86;52.24;49402.29;105696;1253;72958;-51
2024/03/10 15:33:11;;;;;;;27.30;12.60;;;;;;;-147.86;54.95;49376.79;105722;1259;60491;-54
2024/03/10 15:35:40;;;;;;;25.70;10.70;;;;;;;-147.86;57.31;49368.56;105774;1253;60556;-54
2024/03/10 15:38:09;;;;;;;38.00;14.40;;;;;;;-147.86;59.60;49330.91;105648;1259;73725;-53
2024/03/10 15:40:37;;;;;;;54.30;22.60;;;;;;;-147.86;62.32;49297.18;105671;1253;64922;-50
2024/03/10 15:43:08;;;;;;;92.20;33.40;;;;;;;-147.86;64.66;49269.73;105650;1259;72289;-50
2024/03/10 15:45:39;;;;;;;90.70;27.30;;;;;;;-147.86;67.32;49248.55;105644;1258;60828;-51
2024/03/10 15:48:08;;;;;;;56.70;18.10;;;;;;;-147.86;69.73;49217.18;105751;1259;60432;-52
2024/03/10 15:50:37;;;;;;;73.70;23.70;;;;;;;-147.86;71.96;49206.20;105675;1253;74934;-56
2024/03/10 15:53:05;;;;;;;61.80;20.40;;;;;;;-147.86;73.63;49188.16;105747;1257;64452;-50
2024/03/10 15:55:34;;;;;;;44.70;17.70;;;;;;;-147.86;76.02;49176.00;105649;1259;73512;-53
2024/03/10 15:58:01;;;;;;;28.60;13.40;;;;;;;-147.86;77.24;49166.59;105648;1266;60893;-52
2024/03/10 16:00:29;;;;;;;27.40;13.10;;;;;;;-147.86;78.72;49157.96;105661;1253;61109;-53
2024/03/10 16:03:10;;;;;;;27.10;11.60;;;;;;;-147.86;80.15;49162.27;105665;1253;76650;-51
2024/03/10 16:05:52;;;;;;;28.50;11.50;;;;;;;-147.86;81.51;49136.78;105663;1258;65112;-53
2024/03/10 16:08:21;;;;;;;26.60;11.00;;;;;;;-147.86;83.25;49144.24;105818;1259;72510;-56
2024/03/10 16:10:49;;;;;;;26.20;12.30;;;;;;;-147.86;84.90;49127.37;105743;1259;61153;-49
2024/03/10 16:13:30;;;;;;;30.40;12.20;;;;;;;-147.86;86.05;49129.33;105626;1258;60576;-53
2024/03/10 16:16:00;;;;;;;30.70;14.10;;;;;;;-147.86;87.43;49114.04;105647;1255;76016;-50
2024/03/10 16:18:28;;;;;;;29.30;12.30;;;;;;;-147.86;88.54;49110.12;105656;1259;63303;-50
2024/03/10 16:20:58;;;;;;;33.20;12.30;;;;;;;-147.86;89.40;49097.18;105697;1259;72946;-53
2024/03/10 16:23:27;;;;;;;38.60;11.10;;;;;;;-147.86;89.94;49074.04;105702;1258;60592;-50
2024/03/10 16:25:55;;;;;;;27.90;11.40;;;;;;;-147.86;90.62;49054.04;105691;1256;60564;-48
2024/03/10 16:28:25;;;;;;;31.90;12.70;;;;;;;-147.86;90.85;49043.45;105640;1258;73760;-51
2024/03/10 16:30:52;;;;;;;32.90;12.10;;;;;;;-147.86;91.15;49024.23;105689;1254;64873;-52
2024/03/10 16:33:21;;;;;;;22.30;10.30;;;;;;;-147.86;91.28;49000.70;105625;1253;73481;-52
2024/03/10 16:35:49;;;;;;;22.80;11.50;;;;;;;-147.86;91.45;48976.00;105700;1258;60453;-49
2024/03/10 16:38:16;;;;;;;20.70;11.00;;;;;;;-147.86;91.67;48949.73;105636;1255;62050;-50
2024/03/10 16:40:45;;;;;;;24.00;10.80;;;;;;;-147.86;91.78;48918.35;105654;1255;74324;-47
2024/03/10 16:43:16;;;;;;;20.70;10.50;;;;;;;-147.86;92.26;48875.22;105674;1259;64321;-51
2024/03/10 16:45:46;;;;;;;31.60;13.00;;;;;;;-147.86;92.67;48827.77;105641;1253;72539;-48
2024/03/10 16:48:15;;;;;;;37.00;15.00;;;;;;;-147.86;93.20;48770.13;105707;1258;60549;-49
2024/03/10 16:50:43;;;;;;;33.30;12.20;;;;;;;-147.86;93.69;48718.37;105690;1260;60522;-52
2024/03/10 16:53:11;;;;;;;37.30;13.50;;;;;;;-147.86;94.12;48653.66;105630;1259;73425;-49
2024/03/10 16:55:39;;;;;;;32.50;13.50;;;;;;;-147.86;94.72;48561.91;105644;1258;64390;-52
2024/03/10 16:58:07;;;;;;;35.70;12.40;;;;;;;-147.86;94.98;48470.55;105650;1260;72918;-53
2024/03/10 17:00:36;;;;;;;24.70;11.50;;;;;;;-147.86;95.43;48351.36;105664;1260;60474;-51
2024/03/10 17:03:04;;;;;;;23.40;9.70;;;;;;;-147.86;95.28;48262.35;105661;1255;60544;-53
2024/03/10 17:08:34;;;;;;;26.70;11.10;;;;;;;-147.86;95.26;47846.80;102709;1296;599996;-55